Terminal Aerodrome Forecast
Issued by NWS

Home | Current Version | Previous Version | Graphics & Text | Print | Product List | Glossary Off
Versions: 1 2 3 4 5 6 7 8 9 10 11 12 13 14 15 16

000
FTUS43 KDDC 012320
TAFGCK
TAF
KGCK 012320Z 0200/0224 02012KT P6SM BKN026 BKN030 OVC040
     FM020200 02007KT P6SM OVC070
     FM020800 34006KT P6SM BKN100
     FM021600 33008KT P6SM SCT150=

USA.gov is the U.S. government's official web portal to all federal, state and local government web resources and services.